Accueil
METAR-TAF:

METAR-TAF

Aéroports :

Aéroport de Jersey

Jersey,

latitude: 49-13N, longitude: 002-12W, altitude: 84 m

Observation

Le bulletin a été fait il y a 39 minutes, à 21:20 UTC
Vent 21 kt de est/sud-est
Température 6°C
Humidité 87%
Pression 1021 hPa
Visibilité 10 km ou plus

METAR: EGJJ 172120Z AUTO 11021KT 9999 NCD 06/04 Q1021

Heure: 21:59 (21:59 UTC)

Prévision

Le bulletin a été fait il y a 1 heure et 59 minutes, à 20:00 UTC
Prévision valable du 17 à 21 UTC au 18 à 06 UTC
Vent 18 kt de est avec des rafales jusqu'à 28 kt
Visibilité 10 km ou plus
Quelques nuages à une hauteur de 1200 ft
Probabilité 30%
du 17 à 21 UTC au 18 à 06 UTC
Visibilité: 7000 m
Nuages fragmentés à une hauteur de 1200 ft

TAF: EGJJ 172000Z 1721/1806 10018G28KT 9999 FEW012 PROB30 1721/1806 7000 BKN012

Observations et prévisions météorologiques de plus de 4000 aéroports (messages METAR et TAF).

Les stations disponibles sont représentées par des disques jaunes et rouges sur la carte.

Passer la souris dessus pour voir le nom de la station.

Cliquer dessus pour voir les observations et prévisions météorologiques.

Pour changer de carte: cliquez sur les boutons verts avec une croix noire pour zoomer, sur le bouton vert avec un tiret pour effectuer un zoom arrière, ou sur les flèches vertes pour les cartes adjacentes.


METAR-TAF: